High temp

Not for real navigation. The accuracy of this data is not assured See disclaimer for more information



ICAO NAME COUNTRY WIND Kt GUST Kt VIS m TEMP/DEW C BARO METAR
KBBF Brazos 133 TX United States 20 0 9999 60/56 29.87 KBBF 160615Z AUTO 20020KT 10SM CAVOK 60/56 A2987 RMK A01
YARG 12 0 9999 41/3 29.80 YARG 160600Z AUTO 06012KT 9999 // NCD 41/03 Q1009
YRMD 11 0 9999 41/8 29.77 YRMD 160600Z AUTO 32011KT //// // SCT120 41/08 Q1008
YTNK 9 0 9999 41/2 29.83 YTNK 160600Z AUTO 30009KT 270V350 9999 // NCD 41/02 Q1010
YPTN Tindal / Katherine Australia 11 0 9999 41/-2 29.74 YPTN 160600Z AUTO 04011KT 030V160 9999 // NCD 41/M02 Q1007

Show more